Time;durP1;ratioP1;P1;durP2;ratioP2;P2;SDS_P1;SDS_P2;PMS_P1;PMS_P2;Temp;Humidity;BMP_temperature;BMP_pressure;BME280_temperature;BME280_humidity;BME280_pressure;Samples;Min_cycle;Max_cycle;Signal;HPM_P1;HPM_P2
2022/07/31 00:00:26;;;;;;;10.05;2.80;;;20.40;94.20;;;;;;5054477;28;20368;-76
2022/07/31 00:02:54;;;;;;;5.38;2.45;;;20.40;94.30;;;;;;5053438;28;20049;-76
2022/07/31 00:05:24;;;;;;;5.95;2.42;;;20.40;94.30;;;;;;5054136;28;20053;-77
2022/07/31 00:07:53;;;;;;;9.50;2.80;;;20.50;94.30;;;;;;5053499;28;20341;-75
2022/07/31 00:10:21;;;;;;;7.25;2.60;;;20.40;94.30;;;;;;5053890;28;20045;-75
2022/07/31 00:12:48;;;;;;;9.10;2.70;;;20.40;94.30;;;;;;5037167;28;20060;-74
2022/07/31 00:15:16;;;;;;;10.07;2.83;;;20.40;94.40;;;;;;5053420;28;20051;-76
2022/07/31 00:17:44;;;;;;;7.25;2.60;;;20.30;94.40;;;;;;5054576;28;20052;-77
2022/07/31 00:20:13;;;;;;;6.93;2.78;;;20.40;94.50;;;;;;5054472;28;20052;-75
2022/07/31 00:22:42;;;;;;;9.57;2.83;;;20.30;94.50;;;;;;5053856;28;20044;-75
2022/07/31 00:25:10;;;;;;;8.95;2.65;;;20.20;94.60;;;;;;5055251;28;20059;-74
2022/07/31 00:27:39;;;;;;;7.90;2.88;;;20.20;94.70;;;;;;5057225;28;20056;-77
2022/07/31 00:30:07;;;;;;;8.18;2.70;;;20.20;94.80;;;;;;5059005;28;20056;-74
2022/07/31 00:32:35;;;;;;;8.23;2.88;;;20.10;94.90;;;;;;5058361;28;20041;-76
2022/07/31 00:35:03;;;;;;;9.15;2.65;;;20.10;95.00;;;;;;5039924;28;20502;-76
2022/07/31 00:37:35;;;;;;;8.52;3.00;;;20.10;95.00;;;;;;5057504;28;20051;-76
2022/07/31 00:40:08;;;;;;;6.90;2.58;;;20.10;95.10;;;;;;5057528;28;20049;-77
2022/07/31 00:42:36;;;;;;;10.60;2.83;;;20.00;95.20;;;;;;5057146;28;20456;-76
2022/07/31 00:45:04;;;;;;;7.75;2.83;;;20.00;95.10;;;;;;5057526;28;20487;-76
2022/07/31 00:47:32;;;;;;;10.68;3.03;;;20.00;95.20;;;;;;5056888;28;20053;-76
2022/07/31 00:50:00;;;;;;;5.93;3.00;;;20.00;95.20;;;;;;5090788;28;20053;-75
2022/07/31 00:52:27;;;;;;;8.15;2.95;;;20.00;95.20;;;;;;5057022;28;20053;-76
2022/07/31 00:54:55;;;;;;;9.38;2.83;;;20.00;95.30;;;;;;5056051;28;20041;-74
2022/07/31 00:57:22;;;;;;;7.15;2.75;;;20.10;95.30;;;;;;5057419;28;20382;-76
2022/07/31 00:59:50;;;;;;;6.93;2.85;;;20.10;95.30;;;;;;5057036;28;20053;-74
2022/07/31 01:02:18;;;;;;;8.52;3.00;;;20.10;95.20;;;;;;5056872;28;20379;-74
2022/07/31 01:04:45;;;;;;;7.50;2.55;;;20.10;95.20;;;;;;5056964;28;20057;-74
2022/07/31 01:07:13;;;;;;;7.30;2.80;;;20.10;95.20;;;;;;5057829;28;20053;-73
2022/07/31 01:09:41;;;;;;;8.77;2.97;;;20.10;95.20;;;;;;5056474;28;20041;-75
2022/07/31 01:12:13;;;;;;;;;;;20.10;95.10;;;;;;5058051;28;20056;-75
2022/07/31 01:14:47;;;;;;;8.60;2.85;;;20.10;95.30;;;;;;5056021;28;19925;-74
2022/07/31 01:17:16;;;;;;;7.72;2.50;;;20.20;95.00;;;;;;5056834;28;20041;-75
2022/07/31 01:19:46;;;;;;;6.38;2.60;;;20.20;94.90;;;;;;5057356;28;20045;-76
2022/07/31 01:22:52;;;;;;;6.88;2.63;;;20.20;94.90;;;;;;5056494;28;20055;-75
2022/07/31 01:25:45;;;;;;;10.13;2.70;;;20.20;95.10;;;;;;5056698;28;20471;-77
2022/07/31 01:29:10;;;;;;;11.00;2.70;;;20.20;95.00;;;;;;5055690;28;20056;-73
2022/07/31 01:31:46;;;;;;;7.00;2.60;;;20.20;95.00;;;;;;5057232;28;20459;-74
2022/07/31 01:34:37;;;;;;;7.95;2.90;;;20.10;94.80;;;;;;5055266;28;20367;-76
2022/07/31 01:37:19;;;;;;;7.45;2.70;;;20.10;95.10;;;;;;5039356;28;20060;-73
2022/07/31 01:40:00;;;;;;;7.53;2.72;;;20.10;95.10;;;;;;5056315;28;20056;-74
2022/07/31 01:42:30;;;;;;;8.90;2.80;;;20.00;95.10;;;;;;5055053;28;20053;-74
2022/07/31 01:45:00;;;;;;;9.75;2.83;;;20.00;95.10;;;;;;5056084;28;20045;-76
2022/07/31 01:47:31;;;;;;;9.98;2.88;;;20.00;95.20;;;;;;5038678;28;20052;-74
2022/07/31 01:50:03;;;;;;;9.63;2.75;;;20.00;95.20;;;;;;5056387;28;20041;-76
2022/07/31 01:52:32;;;;;;;7.93;2.88;;;20.00;95.30;;;;;;5055899;28;20056;-75
2022/07/31 01:55:01;;;;;;;6.78;2.70;;;20.00;95.30;;;;;;5054911;28;20041;-73
2022/07/31 01:57:31;;;;;;;10.05;2.75;;;20.00;95.30;;;;;;5056601;28;20049;-74
2022/07/31 02:00:06;;;;;;;7.47;3.00;;;20.00;95.30;;;;;;5056015;28;20045;-76
2022/07/31 02:02:55;;;;;;;7.80;2.53;;;20.00;95.40;;;;;;5055785;28;20048;-74
2022/07/31 02:05:30;;;;;;;7.57;2.90;;;20.00;95.40;;;;;;5055742;28;20372;-74
2022/07/31 02:07:57;;;;;;;;;;;20.00;95.30;;;;;;5055402;28;20376;-73
2022/07/31 02:10:28;;;;;;;7.10;2.55;;;20.00;95.70;;;;;;5055648;28;19939;-73
2022/07/31 02:12:57;;;;;;;7.93;2.55;;;20.00;95.40;;;;;;5055510;28;20044;-76
2022/07/31 02:15:26;;;;;;;5.60;2.50;;;20.00;95.40;;;;;;5037435;28;20387;-74
2022/07/31 02:17:55;;;;;;;10.27;2.42;;;20.00;95.40;;;;;;5055458;28;20102;-76
2022/07/31 02:20:24;;;;;;;9.05;2.60;;;20.00;95.50;;;;;;5056287;28;20392;-76
2022/07/31 02:22:57;;;;;;;9.45;2.70;;;20.00;95.60;;;;;;5054332;28;20049;-75
2022/07/31 02:25:26;;;;;;;8.60;2.50;;;19.90;95.60;;;;;;5055366;28;20044;-73
2022/07/31 02:27:56;;;;;;;5.75;2.42;;;20.00;95.70;;;;;;5054206;28;20479;-73
2022/07/31 02:30:28;;;;;;;7.55;2.88;;;20.00;95.70;;;;;;5056005;28;20056;-76
2022/07/31 02:33:17;;;;;;;8.20;2.67;;;20.00;95.80;;;;;;5055286;28;20041;-75
2022/07/31 02:35:49;;;;;;;9.00;2.67;;;20.00;95.80;;;;;;5054080;28;20041;-76
2022/07/31 02:38:19;;;;;;;6.03;2.50;;;20.00;95.70;;;;;;5055434;28;20037;-74
2022/07/31 02:40:58;;;;;;;8.50;2.58;;;20.00;95.70;;;;;;5037635;28;20387;-76
2022/07/31 02:43:31;;;;;;;7.15;2.35;;;20.00;95.70;;;;;;5055472;28;20464;-74
2022/07/31 02:46:05;;;;;;;7.68;2.63;;;20.00;95.90;;;;;;5055367;28;20036;-75
2022/07/31 02:48:35;;;;;;;6.25;2.35;;;20.00;95.80;;;;;;5053991;28;20056;-76
2022/07/31 02:51:07;;;;;;;7.03;2.30;;;20.00;95.80;;;;;;5054947;28;20041;-73
2022/07/31 02:53:36;;;;;;;6.43;2.38;;;20.00;95.80;;;;;;5054528;28;20056;-76
2022/07/31 02:56:09;;;;;;;13.80;2.90;;;20.00;95.80;;;;;;5053774;28;20049;-77
2022/07/31 02:58:43;;;;;;;4.97;2.70;;;20.00;96.00;;;;;;5054761;28;20049;-75
2022/07/31 03:01:34;;;;;;;6.97;2.70;;;20.00;96.10;;;;;;5054313;28;20068;-73
2022/07/31 03:04:02;;;;;;;10.13;2.63;;;20.00;96.10;;;;;;5054819;28;20060;-74
2022/07/31 03:06:30;;;;;;;8.13;2.92;;;20.00;96.20;;;;;;5054559;28;20448;-76
2022/07/31 03:08:58;;;;;;;6.72;2.80;;;20.00;96.30;;;;;;5054416;28;20467;-74
2022/07/31 03:11:26;;;;;;;6.75;3.05;;;19.90;96.50;;;;;;5054672;28;20049;-74
2022/07/31 03:13:57;;;;;;;10.25;3.40;;;19.90;97.10;;;;;;5054719;28;20045;-76
2022/07/31 03:16:26;;;;;;;10.30;3.35;;;19.90;97.60;;;;;;5053388;28;20049;-75
2022/07/31 03:18:56;;;;;;;10.93;3.38;;;19.80;97.60;;;;;;5054330;28;20048;-74
2022/07/31 03:21:24;;;;;;;8.48;3.30;;;19.70;97.90;;;;;;5053197;28;20056;-74
2022/07/31 03:23:52;;;;;;;10.43;3.50;;;19.70;98.10;;;;;;5054252;28;20052;-76
2022/07/31 03:26:22;;;;;;;11.45;3.17;;;19.70;98.30;;;;;;5054403;28;20045;-75
2022/07/31 03:28:50;;;;;;;9.95;3.30;;;19.60;98.40;;;;;;5053171;28;20041;-73
2022/07/31 03:31:17;;;;;;;8.48;3.22;;;19.50;98.60;;;;;;5054887;28;20049;-74
2022/07/31 03:33:46;;;;;;;8.52;3.10;;;19.50;98.70;;;;;;5054548;28;20476;-74
2022/07/31 03:36:15;;;;;;;12.18;3.30;;;19.50;98.80;;;;;;5086520;28;20048;-76
2022/07/31 03:38:43;;;;;;;9.80;3.58;;;19.50;98.90;;;;;;5053987;28;20044;-74
2022/07/31 03:41:39;;;;;;;8.13;3.22;;;19.50;99.00;;;;;;5053395;28;20041;-74
2022/07/31 03:44:07;;;;;;;7.70;2.92;;;19.50;99.10;;;;;;5054785;28;20476;-76
2022/07/31 03:46:35;;;;;;;;;;;19.50;98.90;;;;;;5054448;28;20041;-75
2022/07/31 03:49:03;;;;;;;9.25;2.97;;;19.40;99.30;;;;;;5053014;28;19931;-73
2022/07/31 03:51:33;;;;;;;9.68;3.05;;;19.40;98.90;;;;;;5054170;28;20045;-75
2022/07/31 03:54:01;;;;;;;7.00;3.38;;;19.30;99.00;;;;;;5052833;28;20383;-76
2022/07/31 03:57:06;;;;;;;11.43;3.38;;;19.10;99.30;;;;;;5046043;28;20037;-75
2022/07/31 03:59:35;;;;;;;6.45;3.00;;;19.10;99.70;;;;;;5053527;28;20060;-75
2022/07/31 04:02:15;;;;;;;6.82;2.95;;;19.10;99.90;;;;;;5053513;28;20045;-74
2022/07/31 04:04:49;;;;;;;9.70;3.22;;;19.20;99.90;;;;;;5053762;28;20045;-76
2022/07/31 04:07:17;;;;;;;9.90;3.30;;;19.20;99.90;;;;;;5037211;28;20045;-74
2022/07/31 04:09:45;;;;;;;8.45;3.60;;;19.20;99.90;;;;;;5053640;28;20048;-75
2022/07/31 04:12:14;;;;;;;8.40;3.45;;;19.30;99.80;;;;;;5053562;28;20045;-75
2022/07/31 04:14:42;;;;;;;;;;;19.40;99.70;;;;;;5053127;28;20522;-73
2022/07/31 04:17:10;;;;;;;6.22;3.08;;;19.40;99.90;;;;;;5053587;28;19927;-73
2022/07/31 04:19:38;;;;;;;6.68;3.05;;;19.40;99.60;;;;;;5054005;28;20045;-73
2022/07/31 04:22:06;;;;;;;9.48;3.17;;;19.50;99.50;;;;;;5036283;28;20068;-73
2022/07/31 04:24:35;;;;;;;9.55;2.90;;;19.50;99.40;;;;;;5053635;28;20063;-76
2022/07/31 04:27:21;;;;;;;8.60;3.03;;;19.50;99.40;;;;;;5053412;28;20041;-75
2022/07/31 04:29:49;;;;;;;12.60;3.65;;;19.50;99.30;;;;;;5053559;28;20049;-74
2022/07/31 04:32:17;;;;;;;8.88;3.30;;;19.60;99.30;;;;;;5053393;28;20056;-73
2022/07/31 04:34:51;;;;;;;6.65;3.25;;;19.60;99.30;;;;;;5035998;28;20040;-74
2022/07/31 04:37:19;;;;;;;10.30;3.70;;;19.60;99.20;;;;;;5053557;28;20467;-74
2022/07/31 04:39:47;;;;;;;9.80;3.60;;;19.60;99.20;;;;;;5053499;28;20045;-74
2022/07/31 04:42:14;;;;;;;8.10;3.47;;;19.60;99.20;;;;;;5053143;28;20048;-75
2022/07/31 04:44:43;;;;;;;9.70;3.60;;;19.60;99.20;;;;;;5053719;28;20451;-75
2022/07/31 04:47:12;;;;;;;9.27;3.28;;;19.60;99.20;;;;;;5053475;28;20041;-73
2022/07/31 04:49:42;;;;;;;9.73;3.30;;;19.60;99.10;;;;;;5052122;28;20052;-75
2022/07/31 04:52:13;;;;;;;8.38;3.47;;;19.60;99.10;;;;;;5053061;28;20052;-74
2022/07/31 04:54:44;;;;;;;7.65;3.45;;;19.70;99.00;;;;;;5052559;28;20048;-74
2022/07/31 04:57:13;;;;;;;11.88;3.55;;;19.70;99.00;;;;;;5053287;28;20049;-74
2022/07/31 04:59:48;;;;;;;7.68;3.67;;;19.70;98.90;;;;;;5054123;28;20048;-74
2022/07/31 05:02:28;;;;;;;7.43;3.33;;;19.70;98.90;;;;;;5052106;28;20045;-75
2022/07/31 05:04:56;;;;;;;7.03;3.28;;;19.70;98.90;;;;;;5053405;28;20363;-76
2022/07/31 05:07:31;;;;;;;7.22;3.60;;;19.70;98.80;;;;;;5052310;28;20052;-76
2022/07/31 05:10:03;;;;;;;7.40;3.50;;;19.70;98.80;;;;;;5053291;28;20048;-76
2022/07/31 05:12:31;;;;;;;7.30;3.65;;;19.70;98.80;;;;;;5055378;28;20479;-75
2022/07/31 05:14:59;;;;;;;6.95;3.60;;;19.70;98.80;;;;;;5056446;28;20041;-75
2022/07/31 05:17:27;;;;;;;7.82;4.03;;;19.70;98.80;;;;;;5056634;28;20040;-76
2022/07/31 05:20:14;;;;;;;7.88;3.47;;;19.70;98.90;;;;;;5040018;28;20072;-74
2022/07/31 05:22:56;;;;;;;6.85;3.33;;;19.70;98.80;;;;;;5055476;28;20052;-75
2022/07/31 05:25:40;;;;;;;9.82;3.35;;;19.80;98.70;;;;;;5056687;28;20056;-76
2022/07/31 05:28:08;;;;;;;11.52;3.60;;;19.80;98.60;;;;;;5055389;28;20052;-73
2022/07/31 05:30:36;;;;;;;7.97;3.60;;;19.90;98.50;;;;;;5057154;28;20060;-74
2022/07/31 05:33:05;;;;;;;7.00;3.47;;;19.90;98.40;;;;;;5056840;28;20067;-74
2022/07/31 05:35:33;;;;;;;6.78;2.95;;;19.90;98.20;;;;;;5055461;28;20049;-73
2022/07/31 05:38:01;;;;;;;9.02;3.30;;;20.00;98.10;;;;;;5056184;28;20041;-76
2022/07/31 05:40:50;;;;;;;6.93;3.00;;;20.00;98.00;;;;;;5055787;28;20108;-73
2022/07/31 05:43:52;;;;;;;6.45;2.95;;;20.00;97.90;;;;;;4996372;28;20373;-75
2022/07/31 05:46:24;;;;;;;7.43;3.10;;;20.00;97.80;;;;;;5046602;28;20480;-77
2022/07/31 05:48:52;;;;;;;5.43;2.85;;;20.00;97.80;;;;;;5054999;28;20052;-77
2022/07/31 05:51:19;;;;;;;9.10;3.22;;;20.10;97.80;;;;;;5055868;28;20040;-76
2022/07/31 05:53:48;;;;;;;8.38;2.80;;;20.10;97.60;;;;;;5056056;28;20048;-74
2022/07/31 05:56:34;;;;;;;4.30;2.78;;;20.20;97.50;;;;;;5055993;28;20053;-76
2022/07/31 05:59:02;;;;;;;6.15;2.70;;;20.30;97.30;;;;;;5055755;28;20045;-74
2022/07/31 06:01:30;;;;;;;7.47;2.80;;;20.40;97.10;;;;;;5054953;28;20041;-75
2022/07/31 06:03:58;;;;;;;5.25;2.65;;;20.40;96.90;;;;;;5056304;28;20040;-74
2022/07/31 06:06:31;;;;;;;6.35;2.90;;;20.50;96.80;;;;;;5055962;28;20045;-73
2022/07/31 06:08:59;;;;;;;;;;;20.60;96.50;;;;;;5055198;28;20045;-73
2022/07/31 06:11:35;;;;;;;5.93;3.20;;;20.60;96.40;;;;;;5056067;28;19924;-75
2022/07/31 06:14:03;;;;;;;5.53;3.13;;;20.70;96.30;;;;;;5038413;28;20052;-75
2022/07/31 06:16:54;;;;;;;6.25;3.15;;;20.80;96.20;;;;;;5050932;28;20065;-73
2022/07/31 06:19:22;;;;;;;5.68;3.20;;;20.90;95.90;;;;;;5055883;28;20045;-76
2022/07/31 06:21:52;;;;;;;5.38;3.15;;;21.00;95.70;;;;;;5070989;28;20490;-73
2022/07/31 06:24:21;;;;;;;6.38;3.13;;;21.10;95.50;;;;;;5055091;28;20049;-72
2022/07/31 06:26:49;;;;;;;5.28;2.83;;;21.20;95.30;;;;;;5055470;28;20045;-75
2022/07/31 06:29:17;;;;;;;6.18;3.08;;;21.40;95.20;;;;;;5054222;28;20049;-75
2022/07/31 06:31:45;;;;;;;5.93;2.65;;;21.40;94.90;;;;;;5056206;28;20063;-75
2022/07/31 06:34:13;;;;;;;;;;;21.40;94.50;;;;;;5054309;28;20037;-76
2022/07/31 06:36:48;;;;;;;6.47;3.05;;;21.50;94.20;;;;;;5055433;28;19928;-76
2022/07/31 06:39:18;;;;;;;7.68;2.90;;;21.50;94.40;;;;;;5055560;28;20044;-75
2022/07/31 06:41:49;;;;;;;9.20;2.75;;;21.60;94.30;;;;;;5054271;28;20045;-76
2022/07/31 06:44:30;;;;;;;6.03;2.65;;;21.60;94.00;;;;;;5056173;28;20056;-75
2022/07/31 06:47:22;;;;;;;4.60;2.60;;;21.70;93.90;;;;;;5056231;28;20048;-73
2022/07/31 06:49:53;;;;;;;4.75;2.30;;;21.80;93.70;;;;;;5055335;28;20052;-76
2022/07/31 06:52:25;;;;;;;6.47;2.65;;;21.70;93.60;;;;;;5038381;28;20352;-74
2022/07/31 06:54:53;;;;;;;4.70;2.58;;;21.70;93.60;;;;;;5037229;28;20056;-73
2022/07/31 06:57:21;;;;;;;8.00;2.63;;;21.50;93.60;;;;;;5038059;28;20049;-74
2022/07/31 06:59:49;;;;;;;;;;;21.40;93.80;;;;;;5055279;28;20060;-74
2022/07/31 07:02:17;;;;;;;6.55;2.55;;;21.30;94.00;;;;;;5053907;28;19921;-74
2022/07/31 07:04:45;;;;;;;5.82;2.30;;;21.30;94.00;;;;;;5054675;28;20056;-73
2022/07/31 07:07:35;;;;;;;7.28;2.45;;;21.40;93.90;;;;;;5053460;28;20384;-74
2022/07/31 07:10:05;;;;;;;7.25;2.33;;;21.60;93.80;;;;;;5055046;28;20056;-75
2022/07/31 07:12:51;;;;;;;5.57;2.13;;;21.70;93.40;;;;;;5055362;28;20048;-74
2022/07/31 07:15:21;;;;;;;5.78;2.20;;;21.80;93.30;;;;;;5037028;28;20059;-76
2022/07/31 07:17:49;;;;;;;5.38;2.17;;;22.00;93.00;;;;;;5054562;28;20049;-78
2022/07/31 07:20:25;;;;;;;4.03;1.80;;;22.30;92.70;;;;;;5054116;28;20360;-76
2022/07/31 07:22:53;;;;;;;8.82;2.20;;;22.50;92.10;;;;;;5052917;28;20040;-78
2022/07/31 07:25:41;;;;;;;;;;;22.70;91.90;;;;;;5054966;28;20069;-77
2022/07/31 07:28:12;;;;;;;6.50;2.40;;;22.60;91.50;;;;;;5036999;28;19921;-78
2022/07/31 07:31:00;;;;;;;6.75;2.60;;;22.70;91.40;;;;;;5053697;28;20049;-75
2022/07/31 07:33:30;;;;;;;5.43;2.28;;;22.10;91.30;;;;;;5053868;28;20041;-80
2022/07/31 07:36:12;;;;;;;4.70;1.85;;;22.90;91.30;;;;;;5037837;28;20045;-75
2022/07/31 07:38:55;;;;;;;5.47;2.15;;;23.10;91.00;;;;;;5039349;28;20041;-78
2022/07/31 07:41:24;;;;;;;6.68;2.05;;;23.20;90.80;;;;;;5052669;28;20056;-80
2022/07/31 07:43:52;;;;;;;5.18;1.98;;;23.30;90.60;;;;;;5037252;28;20068;-77
2022/07/31 07:46:23;;;;;;;5.80;2.00;;;23.20;90.60;;;;;;5036918;28;20384;-77
2022/07/31 07:48:55;;;;;;;5.53;2.10;;;23.30;90.50;;;;;;5052641;28;20484;-79
2022/07/31 07:51:36;;;;;;;4.32;1.90;;;23.30;90.50;;;;;;5036454;28;20052;-79
2022/07/31 07:54:47;;;;;;;4.30;1.88;;;23.50;90.40;;;;;;5023478;28;20060;-76
2022/07/31 07:57:21;;;;;;;5.85;1.80;;;23.60;90.10;;;;;;5034608;28;20111;-76
2022/07/31 08:00:10;;;;;;;3.47;1.52;;;23.70;90.20;;;;;;5019720;28;20388;-77
2022/07/31 08:02:45;;;;;;;4.28;1.60;;;23.70;89.50;;;;;;5033453;28;20060;-76
2022/07/31 08:05:38;;;;;;;5.07;1.77;;;23.70;89.40;;;;;;5017717;28;20073;-79
2022/07/31 08:08:05;;;;;;;7.07;1.90;;;23.70;88.60;;;;;;5016384;28;20064;-80
2022/07/31 08:10:48;;;;;;;5.45;1.63;;;23.80;89.00;;;;;;5019727;28;20052;-78
2022/07/31 08:13:35;;;;;;;7.95;1.60;;;23.90;88.40;;;;;;5000835;28;20086;-76
2022/07/31 08:16:19;;;;;;;7.00;1.60;;;24.00;88.00;;;;;;5016259;28;20052;-80
2022/07/31 08:18:55;;;;;;;4.10;1.52;;;24.00;87.30;;;;;;5017642;28;20038;-78
2022/07/31 08:21:24;;;;;;;7.35;1.42;;;23.90;86.80;;;;;;5016442;28;20042;-78
2022/07/31 08:24:02;;;;;;;6.57;1.70;;;23.70;87.20;;;;;;5034706;28;20046;-79
2022/07/31 08:27:22;;;;;;;4.18;1.70;;;23.50;87.50;;;;;;5001021;28;20041;-80
2022/07/31 08:29:24;;;;;;;5.93;1.73;;;23.50;88.00;;;;;;5016000;28;20068;-76
2022/07/31 08:32:12;;;;;;;4.45;1.70;;;23.50;88.00;;;;;;5017480;28;20496;-79
2022/07/31 08:34:55;;;;;;;6.00;1.77;;;23.60;87.80;;;;;;5016036;28;20054;-78
2022/07/31 08:37:23;;;;;;;7.00;1.50;;;23.60;87.40;;;;;;5016963;28;20045;-79
2022/07/31 08:40:11;;;;;;;3.75;1.77;;;23.70;87.10;;;;;;5003792;28;20037;-78
2022/07/31 08:42:39;;;;;;;;;;;23.80;87.00;;;;;;5016614;28;20492;-78
2022/07/31 08:45:16;;;;;;;4.22;1.70;;;24.00;86.40;;;;;;5017468;28;19932;-78
2022/07/31 08:47:55;;;;;;;3.90;1.70;;;24.20;86.40;;;;;;5019850;28;20060;-77
2022/07/31 08:50:27;;;;;;;4.40;1.85;;;24.30;85.70;;;;;;5004930;28;20057;-74
2022/07/31 08:53:03;;;;;;;4.93;1.98;;;24.40;85.60;;;;;;5007141;28;20060;-80
2022/07/31 08:55:46;;;;;;;3.92;1.65;;;24.60;85.30;;;;;;5039520;28;20387;-75
2022/07/31 08:58:31;;;;;;;4.82;1.73;;;24.70;83.90;;;;;;5057750;28;20048;-82
2022/07/31 09:01:10;;;;;;;3.33;1.58;;;24.70;84.10;;;;;;5056800;28;20056;-76
2022/07/31 09:03:41;;;;;;;3.42;1.42;;;24.60;84.10;;;;;;5040898;28;20478;-75
2022/07/31 09:06:13;;;;;;;4.95;1.98;;;24.50;83.70;;;;;;5024846;28;20064;-75
2022/07/31 09:08:41;;;;;;;8.18;1.63;;;24.50;84.20;;;;;;5055771;28;20376;-78
2022/07/31 09:11:14;;;;;;;4.72;1.50;;;24.50;84.20;;;;;;5057656;28;20479;-80
2022/07/31 09:14:04;;;;;;;3.97;1.80;;;24.40;84.20;;;;;;5015362;28;20060;-79
2022/07/31 09:16:46;;;;;;;2.85;1.55;;;23.70;84.50;;;;;;5057147;28;20058;-77
2022/07/31 09:19:15;;;;;;;8.77;1.75;;;24.10;85.00;;;;;;5056853;28;20053;-75
2022/07/31 09:22:21;;;;;;;4.50;1.58;;;24.20;85.00;;;;;;5089409;28;20041;-76
2022/07/31 09:24:50;;;;;;;4.45;1.60;;;24.20;85.10;;;;;;5056730;28;20040;-76
2022/07/31 09:27:19;;;;;;;5.63;1.67;;;24.10;85.20;;;;;;5056673;28;20448;-75
2022/07/31 09:29:51;;;;;;;6.07;1.90;;;24.10;85.40;;;;;;5056993;28;20052;-75
2022/07/31 09:32:35;;;;;;;4.85;1.90;;;24.10;85.50;;;;;;5090146;28;20053;-74
2022/07/31 09:35:17;;;;;;;4.13;1.70;;;24.30;85.40;;;;;;5055385;28;20452;-74
2022/07/31 09:37:47;;;;;;;6.28;1.80;;;24.40;85.40;;;;;;5056211;28;20041;-74
2022/07/31 09:40:35;;;;;;;8.02;2.10;;;24.60;84.70;;;;;;5057321;28;20060;-75
2022/07/31 09:43:55;;;;;;;5.05;1.67;;;24.70;84.90;;;;;;5056400;28;20056;-78
2022/07/31 09:46:24;;;;;;;5.25;2.00;;;24.70;84.70;;;;;;5090461;28;20337;-76
2022/07/31 09:48:59;;;;;;;7.13;1.70;;;24.60;84.60;;;;;;5055031;28;20388;-82
2022/07/31 09:51:52;;;;;;;5.68;1.90;;;23.90;84.60;;;;;;5037569;28;20049;-77
2022/07/31 09:54:22;;;;;;;6.97;2.00;;;24.40;85.80;;;;;;5035786;28;20689;-78
2022/07/31 09:57:13;;;;;;;2.97;1.80;;;24.20;85.90;;;;;;5020980;28;20041;-79
2022/07/31 09:59:44;;;;;;;5.75;2.03;;;24.10;86.60;;;;;;5003074;28;20049;-78
2022/07/31 10:02:14;;;;;;;4.97;1.90;;;24.20;86.10;;;;;;5002466;28;20048;-79
2022/07/31 10:04:47;;;;;;;5.18;1.88;;;24.10;85.90;;;;;;5002701;28;20053;-78
2022/07/31 10:07:21;;;;;;;8.35;2.13;;;24.10;86.10;;;;;;5019019;28;20461;-78
2022/07/31 10:10:13;;;;;;;3.65;1.85;;;23.80;86.50;;;;;;5019115;28;20464;-78
2022/07/31 10:13:06;;;;;;;4.30;1.73;;;23.10;86.30;;;;;;5031667;28;20049;-79
2022/07/31 10:15:36;;;;;;;5.60;2.40;;;24.30;86.50;;;;;;5002023;28;20048;-80
2022/07/31 10:18:33;;;;;;;5.47;1.77;;;24.60;86.20;;;;;;5006279;28;20056;-79
2022/07/31 10:21:42;;;;;;;5.55;2.10;;;25.00;84.50;;;;;;5017585;28;20067;-73
2022/07/31 10:24:18;;;;;;;7.80;1.70;;;25.40;83.90;;;;;;5018881;28;20049;-75
2022/07/31 10:26:48;;;;;;;4.72;2.03;;;25.60;81.60;;;;;;5018843;28;20041;-76
2022/07/31 10:29:29;;;;;;;6.70;1.58;;;25.80;81.60;;;;;;5003187;28;20054;-77
2022/07/31 10:32:01;;;;;;;6.88;1.75;;;25.90;81.20;;;;;;5018632;28;20490;-76
2022/07/31 10:34:40;;;;;;;5.68;1.90;;;26.00;80.50;;;;;;5017803;28;20046;-77
2022/07/31 10:37:47;;;;;;;5.28;1.80;;;26.20;80.70;;;;;;5018263;28;20046;-76
2022/07/31 10:40:42;;;;;;;4.20;1.70;;;26.10;79.30;;;;;;5002424;28;20046;-75
2022/07/31 10:43:30;;;;;;;9.85;1.88;;;26.30;79.30;;;;;;5018601;28;20375;-75
2022/07/31 10:46:12;;;;;;;3.85;1.65;;;26.40;78.30;;;;;;5018461;28;20037;-72
2022/07/31 10:49:03;;;;;;;4.18;1.98;;;26.50;79.00;;;;;;5004037;28;20045;-78
2022/07/31 10:51:59;;;;;;;4.07;1.98;;;26.60;78.50;;;;;;5015736;28;20053;-76
2022/07/31 10:55:00;;;;;;;7.50;2.15;;;26.60;78.50;;;;;;5010156;28;20045;-77
2022/07/31 10:57:42;;;;;;;6.70;1.83;;;26.90;78.60;;;;;;5004833;28;20045;-76
2022/07/31 11:00:39;;;;;;;5.93;1.70;;;27.10;78.00;;;;;;5018262;28;20399;-76
2022/07/31 11:03:35;;;;;;;;;;;27.10;77.40;;;;;;5035178;28;20057;-77
2022/07/31 11:06:40;;;;;;;3.72;1.70;;;27.20;76.60;;;;;;5032532;28;19944;-77
2022/07/31 11:09:30;;;;;;;5.32;2.05;;;27.00;76.30;;;;;;4986419;28;20061;-77
2022/07/31 11:12:24;;;;;;;5.57;1.92;;;27.20;77.50;;;;;;4997210;28;20050;-77
2022/07/31 11:15:28;;;;;;;6.45;2.00;;;27.20;76.00;;;;;;5000844;28;20060;-77
2022/07/31 11:18:22;;;;;;;6.25;2.10;;;27.00;76.40;;;;;;4985492;28;20065;-77
2022/07/31 11:21:05;;;;;;;5.55;2.15;;;27.00;76.60;;;;;;5014687;28;20377;-77
2022/07/31 11:23:54;;;;;;;8.65;1.75;;;27.10;76.40;;;;;;5015450;28;20049;-78
2022/07/31 11:26:31;;;;;;;;;;;27.20;76.20;;;;;;5001066;28;20065;-77
2022/07/31 11:29:10;;;;;;;3.30;1.52;;;27.30;75.80;;;;;;4982702;28;19944;-76
2022/07/31 11:32:00;;;;;;;5.15;2.05;;;27.30;75.80;;;;;;4998272;28;20053;-77
2022/07/31 11:34:28;;;;;;;5.25;1.75;;;27.10;76.80;;;;;;4981175;28;20358;-76
2022/07/31 11:36:55;;;;;;;5.43;2.25;;;27.10;76.50;;;;;;5015457;28;20053;-77
2022/07/31 11:39:26;;;;;;;;;;;27.20;76.10;;;;;;5015618;28;20053;-77
2022/07/31 11:42:04;;;;;;;5.20;1.70;;;27.00;75.70;;;;;;5014353;28;19921;-78
2022/07/31 11:44:34;;;;;;;7.72;1.90;;;27.00;76.90;;;;;;5019353;28;20052;-77
2022/07/31 11:47:02;;;;;;;6.40;1.65;;;27.20;76.30;;;;;;5015446;28;20050;-78
2022/07/31 11:50:00;;;;;;;4.10;1.50;;;27.40;75.80;;;;;;5015552;28;20041;-77
2022/07/31 11:52:27;;;;;;;7.00;1.88;;;27.50;75.10;;;;;;5015351;28;20058;-76
2022/07/31 11:55:05;;;;;;;4.05;1.48;;;27.50;74.60;;;;;;4996740;28;20052;-77
2022/07/31 11:57:37;;;;;;;7.45;1.70;;;27.10;75.20;;;;;;4998371;28;20041;-78
2022/07/31 12:00:20;;;;;;;5.13;1.45;;;27.10;75.40;;;;;;5000086;28;20043;-78
2022/07/31 12:02:59;;;;;;;5.15;1.38;;;27.10;75.90;;;;;;5013961;28;20049;-78
2022/07/31 12:05:26;;;;;;;6.22;1.70;;;26.60;75.50;;;;;;5015217;28;20507;-78
2022/07/31 12:08:06;;;;;;;6.28;1.80;;;26.90;75.80;;;;;;5012803;28;20046;-72
2022/07/31 12:10:35;;;;;;;5.43;1.80;;;26.70;76.70;;;;;;4997789;28;20465;-77
2022/07/31 12:13:02;;;;;;;4.22;1.48;;;26.40;77.00;;;;;;5014688;28;20085;-76
2022/07/31 12:15:34;;;;;;;7.00;1.83;;;26.30;77.60;;;;;;4980788;28;20065;-75
2022/07/31 12:18:07;;;;;;;4.53;1.40;;;26.30;77.80;;;;;;5014966;28;20049;-77
2022/07/31 12:20:34;;;;;;;3.42;1.63;;;26.20;77.70;;;;;;5016102;28;20053;-76
2022/07/31 12:23:16;;;;;;;4.38;1.45;;;26.10;77.90;;;;;;5019201;28;20065;-77
2022/07/31 12:26:24;;;;;;;4.18;1.73;;;26.00;78.10;;;;;;5001631;28;20469;-77
2022/07/31 12:29:07;;;;;;;3.40;1.63;;;25.80;78.40;;;;;;5017671;28;20054;-81
2022/07/31 12:31:54;;;;;;;4.88;1.40;;;25.90;79.30;;;;;;5002305;28;20046;-84
2022/07/31 12:34:32;;;;;;;4.80;1.15;;;25.60;80.50;;;;;;4984998;28;20049;-78
2022/07/31 12:37:02;;;;;;;4.85;1.50;;;24.60;81.40;;;;;;5001391;28;20381;-76
2022/07/31 12:39:49;;;;;;;3.70;1.75;;;25.50;83.60;;;;;;5019143;28;20049;-76
2022/07/31 12:42:33;;;;;;;4.63;1.25;;;25.60;83.80;;;;;;4985549;28;20061;-75
2022/07/31 12:45:09;;;;;;;2.97;1.20;;;25.90;82.90;;;;;;4985972;28;20053;-78
2022/07/31 12:47:52;;;;;;;2.20;1.00;;;26.20;82.20;;;;;;5000512;28;20046;-77
2022/07/31 12:50:21;;;;;;;3.75;1.20;;;25.00;80.00;;;;;;5018596;28;20061;-77
2022/07/31 12:52:49;;;;;;;7.55;1.20;;;26.80;80.10;;;;;;5020294;28;20069;-77
2022/07/31 12:55:16;;;;;;;4.82;1.30;;;27.00;79.50;;;;;;4999770;28;20053;-81
2022/07/31 12:57:44;;;;;;;;;;;27.20;78.30;;;;;;5018567;28;20049;-80
2022/07/31 13:00:21;;;;;;;3.50;0.90;;;27.20;77.50;;;;;;5001412;28;19929;-79
2022/07/31 13:02:55;;;;;;;3.45;0.95;;;27.40;78.00;;;;;;5017145;28;20135;-83
2022/07/31 13:05:24;;;;;;;2.08;0.85;;;27.40;77.30;;;;;;4985094;28;20354;-80
2022/07/31 13:07:55;;;;;;;3.10;0.77;;;27.60;77.10;;;;;;5000513;28;20053;-82
2022/07/31 13:10:24;;;;;;;3.25;0.93;;;27.70;76.60;;;;;;5017920;28;20387;-82
2022/07/31 13:12:59;;;;;;;4.93;0.60;;;27.90;76.10;;;;;;5000800;28;20052;-82
2022/07/31 13:15:29;;;;;;;;;;;28.20;75.80;;;;;;5018837;28;20481;-83
2022/07/31 13:18:00;;;;;;;1.73;0.73;;;28.40;74.50;;;;;;5016318;28;19932;-83
2022/07/31 13:20:29;;;;;;;1.73;0.77;;;28.60;73.70;;;;;;5036490;28;20053;-79
2022/07/31 13:22:58;;;;;;;3.55;0.75;;;28.70;74.60;;;;;;5010165;28;20061;-80
2022/07/31 13:25:30;;;;;;;1.95;0.65;;;28.50;74.10;;;;;;5011676;28;20148;-78
2022/07/31 13:27:58;;;;;;;2.20;0.70;;;28.70;74.30;;;;;;4999726;28;20053;-80
2022/07/31 13:30:29;;;;;;;3.60;0.70;;;28.50;73.50;;;;;;5000542;28;20374;-77
2022/07/31 13:32:56;;;;;;;1.35;0.60;;;28.20;73.80;;;;;;5015927;28;20049;-77